createdAt,value
2019-04-30T00:02:15.876Z,36.50
2019-04-30T00:05:05.507Z,37.57
2019-04-30T00:07:55.025Z,38.03
2019-04-30T00:10:45.275Z,36.07
2019-04-30T00:13:33.483Z,38.60
2019-04-30T00:16:21.099Z,39.23
2019-04-30T00:19:10.658Z,40.97
2019-04-30T00:22:00.482Z,39.97
2019-04-30T00:24:50.059Z,39.83
2019-04-30T00:27:39.039Z,39.73
2019-04-30T00:30:27.749Z,40.43
2019-04-30T00:33:22.111Z,40.40
2019-04-30T00:36:06.329Z,41.77
2019-04-30T00:38:54.812Z,41.77
2019-04-30T00:41:46.352Z,41.67
2019-04-30T00:44:33.462Z,39.30
2019-04-30T00:47:21.891Z,41.70
2019-04-30T00:50:10.213Z,41.57
2019-04-30T00:52:57.893Z,39.50
2019-04-30T00:55:48.362Z,39.10
2019-04-30T00:58:35.637Z,40.63
2019-04-30T01:01:44.272Z,39.73
2019-04-30T01:04:45.002Z,40.40
2019-04-30T01:07:35.327Z,41.27
2019-04-30T01:10:27.300Z,37.80
2019-04-30T01:13:14.291Z,39.57
2019-04-30T01:16:02.535Z,40.30
2019-04-30T01:18:50.771Z,39.07
2019-04-30T01:21:40.188Z,39.37
2019-04-30T01:24:31.652Z,38.43
2019-04-30T01:27:20.315Z,39.40
2019-04-30T01:30:13.265Z,41.40
2019-04-30T01:33:01.069Z,40.80
2019-04-30T01:35:49.390Z,39.87
2019-04-30T01:38:40.109Z,41.47
2019-04-30T01:41:30.929Z,39.30
2019-04-30T01:44:16.943Z,41.70
2019-04-30T01:47:04.927Z,40.60
2019-04-30T01:49:55.778Z,41.40
2019-04-30T01:52:55.460Z,40.40
2019-04-30T01:56:00.884Z,43.23
2019-04-30T01:59:01.287Z,45.37
2019-04-30T02:01:50.182Z,41.83
2019-04-30T02:04:39.344Z,43.33
2019-04-30T02:07:28.776Z,42.23
2019-04-30T02:10:18.654Z,43.43
2019-04-30T02:13:08.838Z,43.67
2019-04-30T02:15:59.086Z,43.43
2019-04-30T02:18:46.706Z,41.93
2019-04-30T02:21:34.928Z,43.00
2019-04-30T02:24:23.086Z,43.07
2019-04-30T02:27:11.670Z,42.83
2019-04-30T02:30:02.603Z,41.17
2019-04-30T02:32:49.541Z,41.80
2019-04-30T02:35:45.702Z,43.20
2019-04-30T02:38:35.621Z,42.80
2019-04-30T02:41:25.048Z,41.17
2019-04-30T02:44:13.045Z,41.20
2019-04-30T02:47:02.095Z,44.17
2019-04-30T02:49:53.510Z,42.27
2019-04-30T02:52:42.532Z,39.83
2019-04-30T02:55:43.918Z,40.47
2019-04-30T02:58:32.619Z,39.07
2019-04-30T03:01:20.864Z,39.73
2019-04-30T03:04:09.843Z,41.47
2019-04-30T03:06:59.813Z,38.90
2019-04-30T03:09:49.932Z,37.97
2019-04-30T03:12:40.250Z,37.30
2019-04-30T03:15:29.591Z,38.87
2019-04-30T03:18:24.474Z,37.87
2019-04-30T03:21:19.135Z,38.70
2019-04-30T03:24:10.509Z,36.43
2019-04-30T03:26:59.431Z,37.30
2019-04-30T03:29:50.304Z,37.17
2019-04-30T03:32:42.626Z,38.83
2019-04-30T03:35:26.733Z,39.17
2019-04-30T03:38:15.257Z,40.03
2019-04-30T03:41:03.519Z,39.50
2019-04-30T03:43:51.507Z,38.70
2019-04-30T03:46:40.441Z,37.77
2019-04-30T03:49:29.825Z,39.23
2019-04-30T03:52:19.700Z,41.30
2019-04-30T03:55:09.316Z,38.70
2019-04-30T03:58:00.075Z,38.00
2019-04-30T04:01:00.371Z,38.00
2019-04-30T04:04:05.841Z,39.60
2019-04-30T04:07:16.088Z,38.20
2019-04-30T04:10:15.408Z,42.00
2019-04-30T04:13:03.141Z,41.07
2019-04-30T04:15:51.291Z,38.80
2019-04-30T04:18:40.210Z,39.97
2019-04-30T04:21:30.001Z,39.90
2019-04-30T04:24:20.212Z,37.57
2019-04-30T04:27:09.580Z,35.03
2019-04-30T04:29:56.672Z,34.13
2019-04-30T04:32:45.081Z,37.70
2019-04-30T04:35:33.352Z,36.63
2019-04-30T04:38:21.513Z,37.40
2019-04-30T04:41:10.276Z,35.40
2019-04-30T04:44:00.125Z,35.80
2019-04-30T04:46:50.004Z,35.60
2019-04-30T04:49:39.777Z,37.30
2019-04-30T04:52:31.127Z,38.80
2019-04-30T04:55:21.724Z,38.40
2019-04-30T04:58:06.691Z,36.43
2019-04-30T05:00:55.008Z,34.17
2019-04-30T05:03:42.703Z,35.00
2019-04-30T05:06:31.355Z,35.40
2019-04-30T05:09:19.559Z,35.90
2019-04-30T05:12:08.543Z,36.07
2019-04-30T05:14:56.350Z,35.20
2019-04-30T05:17:44.659Z,35.63
2019-04-30T05:20:33.039Z,36.43
2019-04-30T05:23:21.876Z,38.00
2019-04-30T05:26:11.071Z,35.70
2019-04-30T05:28:59.471Z,35.40
2019-04-30T05:31:48.555Z,35.70
2019-04-30T05:34:38.551Z,35.50
2019-04-30T05:37:28.378Z,35.87
2019-04-30T05:40:18.807Z,35.37
2019-04-30T05:43:06.110Z,35.37
2019-04-30T05:45:54.338Z,35.77
2019-04-30T05:48:42.927Z,35.90
2019-04-30T05:51:30.979Z,34.83
2019-04-30T05:54:19.005Z,33.47
2019-04-30T05:57:09.413Z,34.00
2019-04-30T05:59:58.467Z,35.17
2019-04-30T06:02:46.947Z,33.53
2019-04-30T06:05:34.963Z,33.47
2019-04-30T06:08:25.250Z,33.90
2019-04-30T06:11:16.866Z,33.17
2019-04-30T06:14:22.478Z,33.57
2019-04-30T06:17:13.355Z,31.70
2019-04-30T06:20:01.398Z,29.53
2019-04-30T06:22:52.091Z,30.63
2019-04-30T06:25:55.652Z,30.37
2019-04-30T06:28:29.529Z,31.00
2019-04-30T06:31:22.303Z,30.03
2019-04-30T06:34:08.572Z,30.80
2019-04-30T06:36:59.513Z,32.10
2019-04-30T06:39:47.319Z,30.80
2019-04-30T06:42:35.276Z,28.53
2019-04-30T06:45:23.476Z,27.93
2019-04-30T06:48:12.651Z,27.30
2019-04-30T06:51:00.919Z,29.37
2019-04-30T06:53:51.253Z,29.10
2019-04-30T06:56:38.779Z,30.17
2019-04-30T06:59:26.819Z,28.70
2019-04-30T07:02:14.919Z,28.07
2019-04-30T07:05:02.698Z,27.33
2019-04-30T07:08:11.486Z,28.43
2019-04-30T07:11:16.287Z,26.97
2019-04-30T07:14:04.070Z,27.53
2019-04-30T07:16:51.755Z,26.57
2019-04-30T07:19:53.335Z,28.57
2019-04-30T07:22:39.636Z,28.40
2019-04-30T07:25:19.517Z,27.30
2019-04-30T07:28:08.981Z,27.10
2019-04-30T07:31:10.735Z,26.13
2019-04-30T07:33:50.729Z,27.63
2019-04-30T07:36:48.283Z,26.47
2019-04-30T07:39:29.330Z,25.90
2019-04-30T07:42:15.899Z,27.30
2019-04-30T07:45:04.266Z,27.90
2019-04-30T07:47:52.936Z,28.33
2019-04-30T07:50:42.208Z,29.63
2019-04-30T07:53:31.092Z,28.40
2019-04-30T07:56:26.742Z,27.37
2019-04-30T07:59:11.037Z,28.57
2019-04-30T08:02:07.425Z,29.07
2019-04-30T08:05:10.321Z,28.33
2019-04-30T08:08:14.433Z,28.30
2019-04-30T08:10:46.854Z,28.50
2019-04-30T08:13:35.418Z,28.00
2019-04-30T08:16:24.091Z,26.70
2019-04-30T08:19:13.180Z,26.30
2019-04-30T08:22:01.706Z,26.60
2019-04-30T08:24:49.314Z,25.47
2019-04-30T08:27:39.303Z,24.07
2019-04-30T08:30:30.040Z,24.60
2019-04-30T08:33:19.351Z,25.90
2019-04-30T08:36:09.296Z,25.50
2019-04-30T08:38:56.911Z,24.40
2019-04-30T08:41:44.770Z,27.77
2019-04-30T08:44:32.765Z,25.00
2019-04-30T08:47:21.302Z,26.60
2019-04-30T08:50:10.689Z,25.10
2019-04-30T08:53:00.033Z,25.10
2019-04-30T08:55:49.184Z,25.00
2019-04-30T08:58:39.091Z,24.60
2019-04-30T09:01:29.380Z,24.63
2019-04-30T09:04:19.937Z,25.97
2019-04-30T09:07:10.065Z,25.20
2019-04-30T09:09:58.515Z,23.20
2019-04-30T09:12:49.512Z,24.13
2019-04-30T09:15:36.935Z,23.80
2019-04-30T09:18:25.687Z,25.60
2019-04-30T09:21:13.991Z,26.80
2019-04-30T09:24:02.355Z,24.13
2019-04-30T09:26:50.168Z,25.43
2019-04-30T09:29:39.164Z,27.00
2019-04-30T09:32:29.084Z,27.03
2019-04-30T09:35:19.510Z,27.43
2019-04-30T09:38:09.201Z,30.10
2019-04-30T09:40:59.276Z,29.30
2019-04-30T09:43:49.255Z,30.10
2019-04-30T09:46:36.582Z,28.67
2019-04-30T09:49:24.119Z,27.20
2019-04-30T09:52:12.371Z,27.70
2019-04-30T09:55:01.316Z,26.50
2019-04-30T09:57:51.389Z,26.20
2019-04-30T10:00:39.568Z,27.20
2019-04-30T10:03:29.711Z,25.60
2019-04-30T10:06:18.944Z,25.93
2019-04-30T10:09:09.630Z,25.17
2019-04-30T10:12:13.740Z,25.37
2019-04-30T10:15:02.010Z,25.12
2019-04-30T10:17:50.063Z,25.88
2019-04-30T10:20:42.904Z,26.20
2019-04-30T10:23:31.327Z,26.73
2019-04-30T10:26:20.115Z,25.80
2019-04-30T10:29:08.466Z,27.40
2019-04-30T10:31:58.668Z,25.83
2019-04-30T10:34:46.267Z,25.73
2019-04-30T10:37:33.915Z,23.13
2019-04-30T10:40:21.980Z,25.30
2019-04-30T10:43:10.238Z,24.67
2019-04-30T10:45:58.567Z,23.47
2019-04-30T10:48:46.288Z,24.45
2019-04-30T10:51:33.843Z,23.77
2019-04-30T10:54:25.758Z,23.90
2019-04-30T10:57:11.361Z,23.62
2019-04-30T10:59:59.787Z,23.73
2019-04-30T11:02:49.532Z,21.80
2019-04-30T11:05:40.681Z,21.40
2019-04-30T11:08:27.503Z,20.92
2019-04-30T11:11:15.483Z,22.67
2019-04-30T11:14:04.106Z,22.07
2019-04-30T11:16:51.913Z,21.25
2019-04-30T11:19:40.250Z,21.50
2019-04-30T11:22:28.950Z,20.70
2019-04-30T11:25:17.289Z,22.20
2019-04-30T11:28:06.748Z,21.73
2019-04-30T11:31:08.740Z,22.05
2019-04-30T11:33:57.063Z,22.37
2019-04-30T11:36:45.404Z,18.32
2019-04-30T11:39:33.716Z,20.50
2019-04-30T11:42:21.591Z,20.27
2019-04-30T11:45:09.519Z,16.20
2019-04-30T11:47:59.056Z,15.95
2019-04-30T11:50:49.708Z,16.75
2019-04-30T11:53:38.985Z,15.18
2019-04-30T11:56:27.259Z,16.95
2019-04-30T11:59:15.278Z,19.90
2019-04-30T12:02:06.273Z,19.65
2019-04-30T12:04:54.215Z,19.57
2019-04-30T12:07:48.287Z,16.67
2019-04-30T12:11:05.548Z,16.50
2019-04-30T12:13:53.232Z,16.07
2019-04-30T12:16:41.262Z,15.85
2019-04-30T12:19:29.523Z,16.67
2019-04-30T12:22:20.082Z,14.80
2019-04-30T12:25:06.827Z,17.37
2019-04-30T12:27:55.397Z,15.38
2019-04-30T12:30:43.971Z,17.02
2019-04-30T12:33:32.178Z,13.85
2019-04-30T12:36:20.560Z,13.30
2019-04-30T12:39:09.292Z,14.53
2019-04-30T12:41:59.244Z,14.23
2019-04-30T12:44:47.339Z,14.18
2019-04-30T12:47:39.983Z,12.43
2019-04-30T12:50:42.991Z,11.93
2019-04-30T12:53:49.011Z,14.03
2019-04-30T12:56:59.067Z,15.03
2019-04-30T12:59:46.653Z,14.00
2019-04-30T13:02:34.666Z,11.73
2019-04-30T13:05:22.295Z,14.45
2019-04-30T13:08:10.417Z,13.45
2019-04-30T13:10:59.288Z,15.38
2019-04-30T13:13:49.968Z,14.28
2019-04-30T13:16:39.177Z,11.80
2019-04-30T13:19:26.960Z,13.62
2019-04-30T13:22:15.206Z,15.20
2019-04-30T13:25:03.734Z,13.72
2019-04-30T13:27:54.786Z,13.20
2019-04-30T13:30:42.774Z,14.15
2019-04-30T13:33:42.813Z,14.25
2019-04-30T13:36:31.395Z,13.90
2019-04-30T13:39:29.197Z,14.03
2019-04-30T13:42:24.727Z,15.43
2019-04-30T13:45:13.142Z,13.18
2019-04-30T13:48:01.169Z,15.68
2019-04-30T13:50:48.677Z,14.83
2019-04-30T13:53:36.645Z,14.85
2019-04-30T13:56:25.094Z,14.25
2019-04-30T13:59:12.650Z,15.83
2019-04-30T14:02:01.068Z,15.70
2019-04-30T14:05:12.102Z,16.77
2019-04-30T14:08:13.267Z,14.60
2019-04-30T14:11:01.358Z,15.23
2019-04-30T14:13:49.837Z,14.60
2019-04-30T14:16:37.603Z,16.17
2019-04-30T14:19:25.623Z,17.17
2019-04-30T14:22:13.651Z,16.23
2019-04-30T14:25:01.564Z,17.80
2019-04-30T14:27:54.545Z,15.80
2019-04-30T14:30:39.393Z,18.30
2019-04-30T14:33:29.241Z,16.00
2019-04-30T14:36:19.392Z,14.87
2019-04-30T14:39:16.154Z,18.32
2019-04-30T14:41:59.955Z,16.67
2019-04-30T14:44:51.041Z,16.90
2019-04-30T14:47:50.079Z,17.67
2019-04-30T14:50:38.569Z,16.93
2019-04-30T14:53:39.145Z,15.80
2019-04-30T14:56:49.390Z,16.62
2019-04-30T15:00:06.195Z,16.50
2019-04-30T15:03:00.049Z,16.48
2019-04-30T15:05:51.367Z,16.85
2019-04-30T15:08:39.386Z,18.15
2019-04-30T15:11:28.878Z,16.52
2019-04-30T15:14:17.400Z,16.00
2019-04-30T15:17:05.455Z,16.15
2019-04-30T15:19:54.611Z,16.97
2019-04-30T15:22:49.467Z,15.83
2019-04-30T15:25:38.805Z,16.35
2019-04-30T15:28:32.359Z,17.92
2019-04-30T15:31:18.444Z,17.87
2019-04-30T15:34:11.297Z,19.17
2019-04-30T15:36:59.353Z,17.50
2019-04-30T15:39:48.865Z,17.93
2019-04-30T15:42:40.575Z,16.70
2019-04-30T15:45:29.202Z,16.33
2019-04-30T15:48:19.616Z,16.37
2019-04-30T15:51:09.034Z,18.60
2019-04-30T15:53:57.714Z,18.13
2019-04-30T15:56:46.404Z,17.97
2019-04-30T15:59:44.545Z,18.70
2019-04-30T16:02:53.458Z,19.33
2019-04-30T16:05:40.899Z,18.00
2019-04-30T16:08:50.111Z,18.70
2019-04-30T16:11:56.692Z,19.13
2019-04-30T16:14:44.463Z,18.77
2019-04-30T16:17:32.438Z,20.97
2019-04-30T16:20:20.720Z,21.57
2019-04-30T16:23:09.133Z,20.27
2019-04-30T16:25:57.210Z,20.50
2019-04-30T16:28:45.727Z,20.83
2019-04-30T16:31:33.714Z,23.50
2019-04-30T16:34:21.927Z,23.77
2019-04-30T16:37:10.416Z,22.90
2019-04-30T16:39:58.813Z,24.30
2019-04-30T16:42:46.538Z,25.07
2019-04-30T16:45:34.330Z,23.30
2019-04-30T16:48:22.775Z,23.30
2019-04-30T16:51:10.410Z,22.00
2019-04-30T16:53:58.686Z,25.17
2019-04-30T16:56:52.385Z,23.73
2019-04-30T16:59:40.691Z,23.00
2019-04-30T17:02:30.354Z,22.43
2019-04-30T17:05:26.438Z,23.83
2019-04-30T17:08:23.965Z,24.67
2019-04-30T17:11:21.212Z,23.57
2019-04-30T17:14:12.422Z,23.50
2019-04-30T17:17:00.918Z,23.80
2019-04-30T17:19:49.229Z,22.97
2019-04-30T17:22:39.367Z,25.07
2019-04-30T17:25:27.555Z,22.97
2019-04-30T17:28:15.517Z,22.50
2019-04-30T17:31:04.241Z,23.30
2019-04-30T17:33:52.094Z,22.80
2019-04-30T17:36:40.195Z,22.23
2019-04-30T17:39:28.591Z,23.80
2019-04-30T17:42:16.563Z,22.63
2019-04-30T17:45:04.811Z,22.73
2019-04-30T17:47:53.027Z,22.50
2019-04-30T17:50:41.494Z,23.17
2019-04-30T17:53:29.783Z,23.17
2019-04-30T17:56:18.323Z,21.37
2019-04-30T17:59:06.703Z,21.10
2019-04-30T18:01:59.660Z,21.67
2019-04-30T18:04:47.892Z,21.93
2019-04-30T18:07:35.939Z,22.13
2019-04-30T18:10:23.705Z,23.30
2019-04-30T18:13:12.204Z,20.70
2019-04-30T18:16:00.596Z,23.73
2019-04-30T18:18:54.528Z,20.83
2019-04-30T18:21:50.451Z,21.17
2019-04-30T18:24:53.871Z,20.70
2019-04-30T18:27:49.469Z,20.87
2019-04-30T18:30:39.129Z,20.77
2019-04-30T18:33:27.418Z,22.40
2019-04-30T18:36:14.883Z,21.03
2019-04-30T18:39:03.482Z,21.67
2019-04-30T18:41:52.102Z,20.20
2019-04-30T18:44:40.307Z,19.43
2019-04-30T18:47:28.190Z,19.90
2019-04-30T18:50:17.094Z,21.67
2019-04-30T18:53:11.585Z,21.60
2019-04-30T18:56:00.058Z,21.03
2019-04-30T18:58:48.671Z,21.37
2019-04-30T19:01:37.242Z,21.70
2019-04-30T19:04:25.503Z,21.27
2019-04-30T19:07:22.394Z,22.97
2019-04-30T19:10:19.950Z,22.83
2019-04-30T19:13:18.911Z,22.70
2019-04-30T19:16:25.728Z,22.40
2019-04-30T19:19:22.694Z,22.07
2019-04-30T19:22:10.789Z,22.07
2019-04-30T19:25:04.037Z,21.80
2019-04-30T19:27:49.522Z,21.53
2019-04-30T19:30:38.990Z,22.63
2019-04-30T19:33:30.780Z,23.43
2019-04-30T19:36:20.339Z,22.40
2019-04-30T19:39:09.614Z,22.40
2019-04-30T19:41:58.367Z,23.87
2019-04-30T19:44:57.097Z,24.67
2019-04-30T19:47:36.483Z,23.47
2019-04-30T19:50:24.498Z,23.27
2019-04-30T19:53:12.988Z,24.30
2019-04-30T19:56:00.498Z,23.87
2019-04-30T19:59:01.699Z,23.07
2019-04-30T20:01:39.176Z,24.20
2019-04-30T20:04:34.083Z,23.63
2019-04-30T20:07:17.312Z,25.37
2019-04-30T20:10:06.219Z,25.43
2019-04-30T20:12:54.338Z,25.37
2019-04-30T20:15:42.471Z,26.50
2019-04-30T20:18:30.662Z,24.20
2019-04-30T20:21:27.974Z,24.17
2019-04-30T20:24:10.055Z,24.90
2019-04-30T20:27:06.388Z,24.30
2019-04-30T20:29:49.331Z,24.50
2019-04-30T20:32:37.320Z,26.30
2019-04-30T20:35:25.372Z,27.00
2019-04-30T20:38:32.866Z,27.00
2019-04-30T20:41:20.427Z,24.67
2019-04-30T20:44:08.835Z,26.37
2019-04-30T20:46:59.440Z,27.13
2019-04-30T20:49:49.004Z,26.70
2019-04-30T20:52:38.835Z,25.10
2019-04-30T20:55:27.207Z,24.97
2019-04-30T20:58:14.706Z,25.50
2019-04-30T21:01:06.376Z,25.83
2019-04-30T21:03:51.983Z,27.53
2019-04-30T21:06:40.575Z,26.43
2019-04-30T21:09:29.207Z,28.27
2019-04-30T21:12:18.767Z,26.27
2019-04-30T21:15:06.842Z,26.87
2019-04-30T21:17:54.863Z,27.53
2019-04-30T21:20:43.292Z,26.70
2019-04-30T21:23:31.806Z,27.37
2019-04-30T21:26:20.003Z,27.40
2019-04-30T21:29:13.708Z,27.40
2019-04-30T21:32:26.445Z,26.53
2019-04-30T21:35:35.275Z,28.80
2019-04-30T21:38:23.607Z,29.10
2019-04-30T21:41:11.852Z,29.37
2019-04-30T21:43:59.816Z,28.70
2019-04-30T21:46:47.577Z,29.40
2019-04-30T21:49:36.015Z,27.70
2019-04-30T21:52:24.456Z,29.77
2019-04-30T21:55:13.391Z,28.63
2019-04-30T21:58:01.798Z,28.10
2019-04-30T22:01:10.891Z,30.67
2019-04-30T22:03:58.636Z,30.40
2019-04-30T22:06:46.750Z,29.10
2019-04-30T22:09:35.128Z,30.07
2019-04-30T22:12:22.678Z,29.97
2019-04-30T22:15:13.718Z,31.70
2019-04-30T22:18:01.958Z,30.20
2019-04-30T22:20:50.191Z,32.03
2019-04-30T22:23:38.267Z,30.70
2019-04-30T22:26:25.725Z,30.47
2019-04-30T22:29:14.178Z,30.80
2019-04-30T22:32:02.511Z,29.47
2019-04-30T22:34:50.730Z,30.70
2019-04-30T22:37:38.887Z,31.13
2019-04-30T22:40:29.107Z,30.27
2019-04-30T22:43:16.644Z,31.73
2019-04-30T22:46:10.300Z,32.10
2019-04-30T22:48:58.308Z,30.57
2019-04-30T22:51:46.762Z,27.30
2019-04-30T22:54:34.903Z,30.93
2019-04-30T22:57:22.716Z,31.57
2019-04-30T23:00:14.417Z,30.93
2019-04-30T23:03:05.451Z,29.20
2019-04-30T23:05:54.143Z,31.43
2019-04-30T23:08:42.120Z,32.33
2019-04-30T23:11:30.509Z,30.73
2019-04-30T23:14:18.842Z,31.20
2019-04-30T23:17:07.372Z,31.67
2019-04-30T23:19:55.856Z,31.00
2019-04-30T23:22:44.024Z,32.63
2019-04-30T23:25:32.229Z,33.90
2019-04-30T23:28:20.256Z,32.40
2019-04-30T23:31:08.391Z,31.43
2019-04-30T23:33:56.867Z,33.47
2019-04-30T23:36:45.644Z,33.60
2019-04-30T23:39:33.694Z,33.30
2019-04-30T23:42:21.692Z,32.67
2019-04-30T23:45:10.139Z,31.60
2019-04-30T23:47:58.323Z,32.60
2019-04-30T23:50:46.476Z,31.97
2019-04-30T23:53:34.051Z,33.47
2019-04-30T23:56:22.846Z,32.50
2019-04-30T23:59:10.578Z,32.97
